Time;durP1;ratioP1;P1;durP2;ratioP2;P2;SDS_P1;SDS_P2;PMS_P1;PMS_P2;Temp;Humidity;BMP_temperature;BMP_pressure;BME280_temperature;BME280_humidity;BME280_pressure;Samples;Min_cycle;Max_cycle;Signal;HPM_P1;HPM_P2
2023/08/08 00:01:42;;;;;;;8.07;7.40;;;12.70;99.90;;;;;;4982306;28;20202;-76
2023/08/08 00:04:09;;;;;;;8.03;7.53;;;12.60;99.90;;;;;;4974031;28;20204;-76
2023/08/08 00:06:36;;;;;;;8.30;7.60;;;12.60;99.90;;;;;;4990777;28;20228;-76
2023/08/08 00:09:04;;;;;;;7.80;7.30;;;12.60;99.90;;;;;;4995157;28;20236;-77
2023/08/08 00:11:31;;;;;;;7.90;7.30;;;12.50;99.90;;;;;;4977691;28;20664;-76
2023/08/08 00:13:58;;;;;;;7.80;7.30;;;12.60;99.90;;;;;;4982196;28;20196;-76
2023/08/08 00:16:26;;;;;;;8.50;7.90;;;12.50;99.90;;;;;;4976274;28;20720;-77
2023/08/08 00:18:53;;;;;;;8.10;7.60;;;12.50;99.90;;;;;;4974165;28;20598;-76
2023/08/08 00:21:20;;;;;;;8.43;7.70;;;12.40;99.90;;;;;;4985089;28;20191;-76
2023/08/08 00:23:47;;;;;;;7.67;7.20;;;12.50;99.90;;;;;;4983240;28;20210;-77
2023/08/08 00:26:14;;;;;;;7.90;7.23;;;12.50;99.90;;;;;;4987579;28;20230;-76
2023/08/08 00:28:41;;;;;;;7.93;7.37;;;12.50;99.90;;;;;;4983884;28;20224;-76
2023/08/08 00:31:08;;;;;;;8.60;8.00;;;12.50;99.90;;;;;;4993389;28;20198;-76
2023/08/08 00:33:36;;;;;;;8.13;7.60;;;12.50;99.90;;;;;;4973924;28;20232;-77
2023/08/08 00:36:03;;;;;;;8.77;8.17;;;12.60;99.90;;;;;;4996246;28;20224;-77
2023/08/08 00:38:30;;;;;;;8.50;8.00;;;12.60;99.90;;;;;;4980854;28;20233;-76
2023/08/08 00:40:57;;;;;;;8.80;8.20;;;12.70;99.90;;;;;;4976258;28;20598;-76
2023/08/08 00:43:24;;;;;;;8.20;7.60;;;12.60;99.90;;;;;;4982377;28;20574;-76
2023/08/08 00:45:50;;;;;;;8.27;7.73;;;12.70;99.90;;;;;;4991392;28;20304;-76
2023/08/08 00:48:19;;;;;;;7.77;7.27;;;12.70;99.90;;;;;;4973484;28;20212;-76
2023/08/08 00:50:50;;;;;;;7.80;7.20;;;12.80;99.90;;;;;;4990423;28;20199;-77
2023/08/08 00:53:19;;;;;;;7.93;7.30;;;12.80;99.90;;;;;;4981731;28;20202;-76
2023/08/08 00:55:46;;;;;;;7.77;7.27;;;12.80;99.90;;;;;;4976404;28;20205;-76
2023/08/08 00:58:13;;;;;;;7.80;7.30;;;12.90;99.90;;;;;;4994985;28;20225;-77
2023/08/08 01:00:41;;;;;;;7.60;7.10;;;12.90;99.90;;;;;;4976838;28;20189;-76
2023/08/08 01:03:08;;;;;;;7.47;7.07;;;12.90;99.90;;;;;;4977506;28;20605;-77
2023/08/08 01:05:44;;;;;;;8.00;7.40;;;13.00;99.90;;;;;;4972957;28;20197;-76
2023/08/08 01:08:17;;;;;;;7.70;7.20;;;13.00;99.90;;;;;;4972802;28;20197;-76
2023/08/08 01:10:44;;;;;;;7.80;7.30;;;12.90;99.90;;;;;;4985225;28;20556;-77
2023/08/08 01:13:14;;;;;;;7.67;7.17;;;12.90;99.90;;;;;;4972075;28;20221;-76
2023/08/08 01:15:42;;;;;;;7.50;7.00;;;12.90;99.90;;;;;;4980669;28;20220;-77
2023/08/08 01:18:11;;;;;;;7.90;7.37;;;12.90;99.90;;;;;;4972109;28;20287;-76
2023/08/08 01:20:39;;;;;;;7.67;7.10;;;12.90;99.90;;;;;;4987287;28;20264;-76
2023/08/08 01:23:16;;;;;;;7.80;7.30;;;13.00;99.90;;;;;;4979483;28;20209;-76
2023/08/08 01:25:45;;;;;;;8.17;7.50;;;13.00;99.90;;;;;;4971546;28;20615;-76
2023/08/08 01:28:12;;;;;;;7.70;7.20;;;12.90;99.90;;;;;;4985685;28;20200;-76
2023/08/08 01:30:39;;;;;;;7.53;7.03;;;12.90;99.90;;;;;;4986862;28;20193;-77
2023/08/08 01:33:06;;;;;;;7.60;7.10;;;12.90;99.90;;;;;;4972259;28;20206;-77
2023/08/08 01:35:39;;;;;;;7.50;7.00;;;12.90;99.90;;;;;;4973136;28;20289;-76
2023/08/08 01:38:12;;;;;;;8.00;7.50;;;12.80;99.90;;;;;;4977940;28;20640;-76
2023/08/08 01:40:40;;;;;;;7.90;7.40;;;12.80;99.90;;;;;;4980182;28;20199;-77
2023/08/08 01:43:09;;;;;;;7.90;7.40;;;12.70;99.90;;;;;;4971793;28;20288;-77
2023/08/08 01:45:37;;;;;;;7.90;7.23;;;12.80;99.90;;;;;;4971181;28;20292;-76
2023/08/08 01:48:08;;;;;;;7.73;7.13;;;12.70;99.90;;;;;;4979728;28;20209;-76
2023/08/08 01:50:35;;;;;;;8.30;7.70;;;12.80;99.90;;;;;;4980195;28;20238;-77
2023/08/08 01:53:02;;;;;;;8.20;7.60;;;12.80;99.90;;;;;;4977556;28;20219;-76
2023/08/08 01:55:28;;;;;;;8.40;7.80;;;12.80;99.90;;;;;;4995284;28;20202;-76
2023/08/08 01:57:55;;;;;;;8.00;7.50;;;12.90;99.90;;;;;;4974969;28;20704;-77
2023/08/08 02:00:24;;;;;;;8.50;8.00;;;12.90;99.90;;;;;;4977993;28;20220;-76
2023/08/08 02:02:51;;;;;;;8.50;7.90;;;12.90;99.90;;;;;;4981092;28;20606;-77
2023/08/08 02:05:18;;;;;;;8.30;7.70;;;12.90;99.90;;;;;;4975030;28;20209;-76
2023/08/08 02:07:45;;;;;;;8.13;7.63;;;12.90;99.90;;;;;;4984060;28;20197;-76
2023/08/08 02:10:12;;;;;;;8.30;7.67;;;12.90;99.90;;;;;;4945026;28;1056631;-77
2023/08/08 02:12:40;;;;;;;8.10;7.60;;;12.90;99.90;;;;;;4994959;28;20208;-76
2023/08/08 02:15:07;;;;;;;8.00;7.50;;;12.90;99.90;;;;;;4984579;28;20257;-76
2023/08/08 02:17:36;;;;;;;7.93;7.43;;;13.00;99.90;;;;;;4983794;28;20201;-77
2023/08/08 02:20:04;;;;;;;8.40;7.90;;;12.90;99.90;;;;;;4990357;28;20225;-76
2023/08/08 02:22:30;;;;;;;8.03;7.40;;;12.90;99.90;;;;;;4994844;28;20197;-76
2023/08/08 02:24:57;;;;;;;8.30;7.77;;;12.90;99.90;;;;;;4976434;28;20677;-76
2023/08/08 02:27:24;;;;;;;8.17;7.67;;;12.80;99.90;;;;;;4989975;28;20212;-76
2023/08/08 02:29:51;;;;;;;8.10;7.50;;;12.80;99.90;;;;;;4986040;28;20622;-76
2023/08/08 02:32:18;;;;;;;8.03;7.53;;;12.70;99.90;;;;;;4985802;28;20212;-77
2023/08/08 02:34:46;;;;;;;8.23;7.73;;;12.70;99.90;;;;;;4994743;28;20202;-77
2023/08/08 02:37:13;;;;;;;8.10;7.60;;;12.70;99.90;;;;;;4992684;28;20193;-76
2023/08/08 02:39:42;;;;;;;8.13;7.63;;;12.70;99.90;;;;;;4996324;28;20248;-76
2023/08/08 02:42:09;;;;;;;8.40;7.80;;;12.70;99.90;;;;;;4984593;28;20664;-76
2023/08/08 02:44:36;;;;;;;8.33;7.83;;;12.70;99.90;;;;;;4994585;28;20193;-76
2023/08/08 02:47:02;;;;;;;8.00;7.50;;;12.70;99.90;;;;;;4991108;28;20209;-76
2023/08/08 02:49:29;;;;;;;8.10;7.60;;;12.70;99.90;;;;;;4978770;28;20217;-77
2023/08/08 02:51:57;;;;;;;8.13;7.63;;;12.70;99.90;;;;;;4991833;28;20209;-77
2023/08/08 02:54:28;;;;;;;8.80;7.90;;;12.80;99.90;;;;;;4975613;28;20208;-76
2023/08/08 02:56:55;;;;;;;8.17;7.67;;;12.80;99.90;;;;;;4993033;28;20236;-76
2023/08/08 02:59:22;;;;;;;8.20;7.70;;;12.80;99.90;;;;;;4996952;28;20222;-77
2023/08/08 03:01:51;;;;;;;7.97;7.47;;;12.80;99.90;;;;;;4998548;28;20233;-77
2023/08/08 03:04:19;;;;;;;8.17;7.57;;;12.80;99.90;;;;;;4984268;28;20194;-76
2023/08/08 03:06:46;;;;;;;8.50;7.80;;;12.80;99.90;;;;;;4974591;28;20252;-76
2023/08/08 03:09:14;;;;;;;7.87;7.37;;;12.80;99.90;;;;;;4974853;28;20226;-76
2023/08/08 03:11:42;;;;;;;7.97;7.40;;;12.80;99.90;;;;;;4990242;28;20196;-76
2023/08/08 03:14:13;;;;;;;8.10;7.50;;;12.80;99.90;;;;;;4979894;28;20198;-76
2023/08/08 03:16:40;;;;;;;8.37;7.70;;;12.80;99.90;;;;;;4993638;28;20198;-76
2023/08/08 03:19:09;;;;;;;8.27;7.77;;;12.70;99.90;;;;;;4982175;28;20243;-76
2023/08/08 03:21:37;;;;;;;7.87;7.37;;;12.80;99.90;;;;;;4989006;28;20220;-76
2023/08/08 03:24:05;;;;;;;8.23;7.60;;;12.70;99.90;;;;;;4999091;28;20298;-80
2023/08/08 03:26:33;;;;;;;8.20;7.70;;;12.70;99.90;;;;;;5005138;28;20201;-85
2023/08/08 03:29:00;;;;;;;8.17;7.67;;;12.70;99.90;;;;;;4985743;28;20766;-80
2023/08/08 03:31:37;;;;;;;7.73;7.23;;;12.60;99.90;;;;;;5005552;28;20209;-80
2023/08/08 03:34:05;;;;;;;7.47;7.03;;;12.60;99.90;;;;;;5000982;28;20228;-79
2023/08/08 03:36:33;;;;;;;7.73;7.23;;;12.60;99.90;;;;;;4984494;28;20190;-80
2023/08/08 03:39:00;;;;;;;7.60;7.20;;;12.60;99.90;;;;;;5004323;28;20228;-81
2023/08/08 03:41:27;;;;;;;7.93;7.33;;;12.60;99.90;;;;;;4988130;28;20198;-80
2023/08/08 03:43:56;;;;;;;8.00;7.50;;;12.60;99.90;;;;;;4989116;28;20204;-80
2023/08/08 03:46:23;;;;;;;7.80;7.30;;;12.70;99.90;;;;;;4994624;28;20205;-81
2023/08/08 03:48:50;;;;;;;8.50;8.00;;;12.60;99.90;;;;;;5002679;28;20220;-81
2023/08/08 03:51:17;;;;;;;8.63;8.10;;;12.60;99.90;;;;;;4994525;28;20205;-81
2023/08/08 03:53:44;;;;;;;8.53;7.93;;;12.60;99.90;;;;;;5013702;28;20234;-81
2023/08/08 03:56:11;;;;;;;8.73;8.13;;;12.60;99.90;;;;;;5001862;28;20220;-81
2023/08/08 03:58:38;;;;;;;8.10;7.60;;;12.60;99.90;;;;;;4993190;28;20217;-81
2023/08/08 04:01:08;;;;;;;8.73;8.23;;;12.60;99.90;;;;;;5005424;28;20220;-81
2023/08/08 04:03:35;;;;;;;8.10;7.60;;;12.60;99.90;;;;;;5000952;28;20192;-80
2023/08/08 04:06:02;;;;;;;8.87;8.27;;;12.60;99.90;;;;;;4992388;28;20205;-81
2023/08/08 04:08:28;;;;;;;8.07;7.57;;;12.60;99.90;;;;;;5004055;28;20229;-81
2023/08/08 04:10:55;;;;;;;7.90;7.40;;;12.70;99.90;;;;;;4986027;28;20206;-79
2023/08/08 04:13:22;;;;;;;8.00;7.50;;;12.70;99.90;;;;;;4986746;28;20209;-80
2023/08/08 04:15:51;;;;;;;8.10;7.60;;;12.70;99.90;;;;;;4993201;28;20197;-83
2023/08/08 04:18:19;;;;;;;8.53;8.03;;;12.70;99.90;;;;;;4980484;28;20276;-81
2023/08/08 04:20:47;;;;;;;8.70;8.10;;;12.70;99.90;;;;;;4991963;28;20275;-81
2023/08/08 04:23:14;;;;;;;8.37;7.87;;;12.70;99.90;;;;;;4990203;28;20253;-81
2023/08/08 04:25:41;;;;;;;8.30;7.80;;;12.80;99.90;;;;;;4997947;28;20224;-82
2023/08/08 04:28:07;;;;;;;8.20;7.70;;;12.80;99.90;;;;;;4999519;28;20209;-83
2023/08/08 04:30:35;;;;;;;8.90;8.40;;;12.80;99.90;;;;;;4987831;28;20571;-82
2023/08/08 04:33:01;;;;;;;9.13;8.60;;;12.80;99.90;;;;;;4993664;28;20268;-82
2023/08/08 04:35:30;;;;;;;8.83;8.33;;;12.90;99.90;;;;;;5000856;28;20296;-82
2023/08/08 04:37:56;;;;;;;9.20;8.50;;;12.90;99.90;;;;;;4982492;28;20198;-82
2023/08/08 04:40:23;;;;;;;9.10;8.50;;;12.90;99.90;;;;;;4985618;28;20233;-81
2023/08/08 04:42:52;;;;;;;9.07;8.57;;;12.90;99.90;;;;;;4994694;28;20604;-81
2023/08/08 04:45:20;;;;;;;9.20;8.60;;;13.00;99.90;;;;;;4977011;28;20229;-82
2023/08/08 04:47:47;;;;;;;8.60;8.10;;;13.00;99.90;;;;;;5010344;28;20204;-83
2023/08/08 04:50:14;;;;;;;9.17;8.57;;;13.00;99.90;;;;;;4988190;28;20221;-82
2023/08/08 04:52:42;;;;;;;9.57;8.90;;;13.10;99.90;;;;;;4987095;28;20201;-81
2023/08/08 04:55:10;;;;;;;9.13;8.60;;;13.10;99.90;;;;;;4992176;28;20729;-80
2023/08/08 04:57:37;;;;;;;9.43;8.90;;;13.10;99.90;;;;;;4996223;28;20475;-78
2023/08/08 05:00:06;;;;;;;9.33;8.73;;;13.20;99.90;;;;;;5015170;28;20223;-80
2023/08/08 05:02:34;;;;;;;9.60;9.00;;;13.30;99.90;;;;;;4993272;28;20723;-82
2023/08/08 05:05:01;;;;;;;9.30;8.80;;;13.30;99.90;;;;;;4995141;28;20701;-82
2023/08/08 05:07:28;;;;;;;9.50;8.80;;;13.40;99.90;;;;;;4990129;28;20201;-80
2023/08/08 05:09:56;;;;;;;8.03;7.53;;;13.40;99.90;;;;;;5001175;28;20646;-81
2023/08/08 05:12:23;;;;;;;9.03;8.43;;;13.50;99.90;;;;;;4991733;28;20247;-81
2023/08/08 05:14:49;;;;;;;9.97;9.37;;;13.60;99.90;;;;;;4996171;28;20208;-81
2023/08/08 05:17:16;;;;;;;9.57;8.97;;;13.70;99.90;;;;;;4998200;28;20611;-79
2023/08/08 05:19:43;;;;;;;9.03;8.43;;;13.80;99.90;;;;;;4991803;28;20220;-81
2023/08/08 05:22:10;;;;;;;8.60;8.10;;;13.90;99.90;;;;;;5025192;28;20201;-81
2023/08/08 05:24:37;;;;;;;9.30;8.70;;;13.90;99.90;;;;;;4998014;28;20241;-81
2023/08/08 05:27:06;;;;;;;8.70;8.20;;;14.10;99.90;;;;;;4990824;28;20586;-77
2023/08/08 05:29:32;;;;;;;9.10;8.50;;;14.10;99.90;;;;;;4978002;28;20772;-82
2023/08/08 05:31:59;;;;;;;9.00;8.40;;;14.20;99.90;;;;;;4991316;28;20206;-82
2023/08/08 05:34:26;;;;;;;8.80;8.10;;;14.20;99.90;;;;;;4994875;28;20202;-80
2023/08/08 05:36:53;;;;;;;5.53;5.13;;;14.20;99.90;;;;;;4994970;28;20252;-81
2023/08/08 05:39:19;;;;;;;2.80;2.60;;;14.30;99.90;;;;;;4987626;28;20755;-79
2023/08/08 05:41:46;;;;;;;3.17;2.80;;;14.40;99.90;;;;;;4978031;28;20204;-80
2023/08/08 05:44:14;;;;;;;2.83;2.63;;;14.50;99.90;;;;;;4987335;28;20234;-79
2023/08/08 05:46:41;;;;;;;2.97;2.70;;;14.60;99.90;;;;;;4985119;28;20198;-79
2023/08/08 05:49:08;;;;;;;2.70;2.50;;;14.70;99.90;;;;;;4992296;28;20226;-80
2023/08/08 05:51:35;;;;;;;3.10;2.80;;;15.00;99.90;;;;;;4992344;28;20201;-79
2023/08/08 05:54:02;;;;;;;3.57;2.80;;;15.20;99.90;;;;;;4989218;28;20262;-81
2023/08/08 05:56:35;;;;;;;3.07;2.87;;;15.40;99.90;;;;;;4997567;28;20684;-81
2023/08/08 05:59:02;;;;;;;4.00;2.50;;;15.70;99.90;;;;;;5017009;28;20228;-82
2023/08/08 06:01:31;;;;;;;10.13;9.43;;;15.90;99.90;;;;;;4983549;28;20202;-81
2023/08/08 06:03:59;;;;;;;6.87;6.30;;;15.90;99.90;;;;;;4981820;28;20190;-81
2023/08/08 06:06:26;;;;;;;6.20;5.70;;;16.00;99.90;;;;;;4984345;28;20206;-80
2023/08/08 06:08:52;;;;;;;8.73;8.23;;;16.00;99.90;;;;;;4983362;28;20221;-82
2023/08/08 06:11:21;;;;;;;8.67;8.07;;;16.00;99.90;;;;;;4985735;28;20265;-80
2023/08/08 06:13:48;;;;;;;8.97;8.40;;;16.00;99.90;;;;;;4991504;28;20263;-81
2023/08/08 06:16:15;;;;;;;8.53;8.03;;;15.90;99.90;;;;;;4992032;28;20202;-80
2023/08/08 06:18:43;;;;;;;7.43;6.93;;;15.90;99.90;;;;;;4999217;28;20215;-77
2023/08/08 06:21:11;;;;;;;8.20;7.70;;;15.90;99.90;;;;;;4974901;28;20217;-77
2023/08/08 06:23:38;;;;;;;8.80;8.20;;;16.10;99.90;;;;;;4995002;28;20300;-76
2023/08/08 06:26:05;;;;;;;8.93;8.33;;;16.20;99.90;;;;;;4974780;28;20202;-77
2023/08/08 06:28:32;;;;;;;8.60;8.00;;;16.40;99.90;;;;;;4979374;28;20221;-77
2023/08/08 06:30:59;;;;;;;8.60;8.00;;;16.50;99.90;;;;;;4979978;28;20186;-77
2023/08/08 06:33:26;;;;;;;7.80;7.40;;;16.50;99.90;;;;;;4980318;28;20233;-77
2023/08/08 06:35:54;;;;;;;2.70;2.40;;;16.60;99.90;;;;;;4986247;28;20220;-76
2023/08/08 06:38:20;;;;;;;7.70;7.20;;;16.80;99.90;;;;;;4980909;28;20236;-77
2023/08/08 06:40:47;;;;;;;8.07;7.43;;;17.00;99.90;;;;;;4974763;28;20226;-77
2023/08/08 06:43:14;;;;;;;8.20;7.70;;;17.20;99.90;;;;;;4992783;28;20271;-77
2023/08/08 06:45:41;;;;;;;7.57;7.10;;;17.40;99.90;;;;;;4977214;28;20693;-77
2023/08/08 06:48:08;;;;;;;8.40;7.90;;;17.80;99.90;;;;;;4977056;28;20214;-77
2023/08/08 06:50:35;;;;;;;8.10;7.40;;;18.00;99.90;;;;;;4980380;28;20244;-77
2023/08/08 06:53:04;;;;;;;7.63;7.23;;;18.10;99.90;;;;;;4977132;28;20691;-77
2023/08/08 06:55:31;;;;;;;7.97;7.37;;;18.20;99.90;;;;;;4992890;28;20203;-77
2023/08/08 06:57:58;;;;;;;2.60;2.07;;;18.30;99.90;;;;;;4983766;28;20204;-77
2023/08/08 07:00:26;;;;;;;7.80;7.30;;;18.60;99.90;;;;;;4975738;28;20229;-77
2023/08/08 07:02:53;;;;;;;6.97;6.57;;;18.90;99.90;;;;;;4976771;28;20289;-78
2023/08/08 07:05:22;;;;;;;3.70;2.80;;;19.30;99.90;;;;;;4991596;28;20753;-77
2023/08/08 07:07:49;;;;;;;7.60;7.10;;;19.50;99.90;;;;;;4988201;28;20203;-78
2023/08/08 07:10:17;;;;;;;6.97;6.57;;;19.90;99.90;;;;;;4985418;28;20225;-78
2023/08/08 07:12:44;;;;;;;7.60;7.10;;;20.10;99.90;;;;;;4993554;28;20208;-78
2023/08/08 07:15:12;;;;;;;6.83;6.33;;;20.30;99.90;;;;;;4997421;28;20251;-78
2023/08/08 07:17:39;;;;;;;3.73;3.50;;;20.50;99.90;;;;;;4980540;28;20198;-76
2023/08/08 07:20:08;;;;;;;2.63;2.47;;;20.70;99.90;;;;;;4979899;28;20276;-77
2023/08/08 07:22:35;;;;;;;3.03;2.30;;;21.00;99.90;;;;;;4984371;28;20679;-78
2023/08/08 07:25:02;;;;;;;2.40;2.20;;;21.10;99.90;;;;;;4980955;28;20213;-78
2023/08/08 07:27:30;;;;;;;3.27;2.63;;;21.20;99.90;;;;;;4984362;28;20198;-78
2023/08/08 07:29:58;;;;;;;3.20;2.50;;;21.00;99.90;;;;;;4975662;28;20232;-78
2023/08/08 07:32:25;;;;;;;3.43;2.50;;;21.10;99.90;;;;;;4984176;28;20208;-78
2023/08/08 07:34:52;;;;;;;3.50;2.60;;;21.50;99.90;;;;;;4989790;28;20201;-77
2023/08/08 07:37:19;;;;;;;2.60;2.40;;;21.90;99.90;;;;;;4986183;28;20267;-78
2023/08/08 07:39:45;;;;;;;2.77;2.53;;;22.40;99.90;;;;;;4988833;28;20233;-78
2023/08/08 07:42:12;;;;;;;3.90;3.70;;;22.80;99.90;;;;;;4981312;28;20206;-77
2023/08/08 07:44:40;;;;;;;5.30;5.00;;;23.10;99.90;;;;;;4999808;28;20809;-77
2023/08/08 07:47:07;;;;;;;2.67;2.47;;;23.50;99.90;;;;;;4988318;28;20205;-78
2023/08/08 07:49:34;;;;;;;3.20;3.00;;;23.80;99.90;;;;;;4984757;28;20224;-78
2023/08/08 07:52:01;;;;;;;5.17;4.87;;;24.10;99.90;;;;;;4989562;28;20189;-78
2023/08/08 07:54:28;;;;;;;3.40;3.20;;;24.30;99.90;;;;;;4980861;28;20268;-78
2023/08/08 07:56:55;;;;;;;3.30;3.10;;;24.50;99.90;;;;;;4985004;28;20193;-78
2023/08/08 07:59:21;;;;;;;2.60;2.40;;;24.80;99.90;;;;;;4994746;28;20253;-78
2023/08/08 08:01:50;;;;;;;7.73;2.93;;;24.90;99.90;;;;;;4982913;28;20272;-78
2023/08/08 08:04:16;;;;;;;4.63;4.33;;;25.10;99.90;;;;;;4985532;28;20213;-78
2023/08/08 08:06:43;;;;;;;5.10;4.70;;;25.30;99.90;;;;;;4977281;28;20194;-79
2023/08/08 08:09:10;;;;;;;5.73;5.17;;;25.60;99.90;;;;;;4991668;28;20236;-77
2023/08/08 08:11:37;;;;;;;5.10;4.80;;;25.80;99.90;;;;;;4985275;28;20190;-79
2023/08/08 08:14:04;;;;;;;5.40;5.00;;;25.90;99.90;;;;;;4983475;28;20232;-78
2023/08/08 08:16:31;;;;;;;6.00;5.57;;;25.90;99.90;;;;;;4979687;28;20293;-78
2023/08/08 08:18:59;;;;;;;6.10;5.60;;;26.10;99.90;;;;;;4996286;28;20705;-81
2023/08/08 08:21:26;;;;;;;6.70;6.10;;;26.20;99.90;;;;;;4981694;28;20284;-82
2023/08/08 08:23:53;;;;;;;7.87;7.37;;;26.10;99.90;;;;;;4995622;28;20193;-82
2023/08/08 08:26:19;;;;;;;8.57;7.97;;;25.70;99.90;;;;;;4987824;28;20209;-78
2023/08/08 08:28:46;;;;;;;7.80;7.30;;;25.30;99.90;;;;;;4974759;28;20736;-78
2023/08/08 08:31:13;;;;;;;7.90;7.30;;;25.20;99.90;;;;;;4974433;28;20213;-77
2023/08/08 08:33:40;;;;;;;6.53;6.03;;;25.20;99.90;;;;;;4975279;28;20202;-78
2023/08/08 08:36:08;;;;;;;7.83;7.33;;;24.90;99.90;;;;;;4975138;28;20216;-78
2023/08/08 08:38:35;;;;;;;7.30;6.60;;;24.90;99.90;;;;;;4985464;28;20222;-78
2023/08/08 08:41:03;;;;;;;8.80;8.20;;;24.70;99.90;;;;;;4981835;28;20222;-78
2023/08/08 08:43:31;;;;;;;7.77;7.30;;;24.00;99.90;;;;;;4991470;28;20202;-77
2023/08/08 08:46:02;;;;;;;4.80;4.40;;;23.60;99.90;;;;;;4989800;28;20202;-77
2023/08/08 08:48:29;;;;;;;8.13;7.53;;;23.60;99.90;;;;;;4982694;28;20246;-77
2023/08/08 08:50:57;;;;;;;3.27;2.87;;;23.50;99.90;;;;;;4980446;28;20564;-77
2023/08/08 08:53:26;;;;;;;8.30;7.60;;;23.70;99.90;;;;;;4991882;28;20586;-77
2023/08/08 08:55:54;;;;;;;8.07;7.47;;;24.10;99.90;;;;;;4975147;28;20226;-77
2023/08/08 08:58:23;;;;;;;7.60;7.10;;;24.70;99.90;;;;;;4975085;28;20230;-77
2023/08/08 09:00:51;;;;;;;8.23;7.63;;;25.00;99.90;;;;;;4995604;28;20216;-78
2023/08/08 09:03:19;;;;;;;6.97;6.47;;;24.90;99.90;;;;;;4993831;28;20240;-77
2023/08/08 09:05:48;;;;;;;8.07;7.50;;;25.30;99.90;;;;;;4993289;28;20208;-80
2023/08/08 09:08:15;;;;;;;7.43;6.93;;;25.40;99.90;;;;;;4998587;28;20718;-81
2023/08/08 09:10:43;;;;;;;6.37;5.90;;;25.60;99.90;;;;;;4987529;28;20257;-78
2023/08/08 09:13:10;;;;;;;6.80;6.30;;;25.70;99.90;;;;;;4973703;28;20197;-78
2023/08/08 09:15:36;;;;;;;7.80;7.30;;;25.70;99.90;;;;;;4975729;28;20205;-78
2023/08/08 09:18:03;;;;;;;8.27;7.63;;;25.40;99.90;;;;;;4990483;28;20205;-79
2023/08/08 09:20:30;;;;;;;9.33;8.70;;;25.00;99.90;;;;;;4986416;28;20237;-79
2023/08/08 09:22:57;;;;;;;8.20;7.70;;;24.90;99.90;;;;;;5008105;28;20212;-78
2023/08/08 09:25:24;;;;;;;7.43;6.93;;;24.90;99.90;;;;;;4984236;28;20296;-77
2023/08/08 09:27:54;;;;;;;7.77;7.27;;;25.10;99.90;;;;;;4977894;28;20577;-79
2023/08/08 09:30:21;;;;;;;7.50;6.80;;;25.30;99.90;;;;;;4976386;28;20217;-79
2023/08/08 09:32:48;;;;;;;6.43;5.93;;;25.40;99.90;;;;;;4977743;28;20628;-79
2023/08/08 09:35:16;;;;;;;3.63;3.33;;;25.60;99.90;;;;;;4993702;28;20209;-78
2023/08/08 09:37:43;;;;;;;7.70;7.10;;;25.40;99.90;;;;;;4982841;28;20201;-79
2023/08/08 09:40:11;;;;;;;7.43;6.93;;;25.10;99.90;;;;;;4987327;28;20336;-83
2023/08/08 09:42:38;;;;;;;8.27;7.57;;;24.80;99.90;;;;;;4991678;28;20197;-84
2023/08/08 09:45:09;;;;;;;8.03;7.43;;;24.60;99.90;;;;;;4984731;28;20229;-79
2023/08/08 09:47:36;;;;;;;7.90;7.40;;;24.60;99.90;;;;;;4978887;28;20209;-78
2023/08/08 09:50:05;;;;;;;7.80;7.20;;;24.40;99.90;;;;;;4994312;28;20295;-79
2023/08/08 09:52:33;;;;;;;7.33;6.83;;;24.20;99.90;;;;;;4977347;28;20661;-78
2023/08/08 09:55:01;;;;;;;6.73;6.23;;;24.20;99.90;;;;;;4977359;28;20236;-79
2023/08/08 09:57:28;;;;;;;7.83;7.33;;;24.40;99.90;;;;;;4991037;28;20296;-79
2023/08/08 09:59:56;;;;;;;7.60;7.10;;;24.30;99.90;;;;;;4976563;28;20221;-81
2023/08/08 10:02:25;;;;;;;7.40;6.90;;;24.30;99.90;;;;;;4990700;28;20224;-82
2023/08/08 10:04:53;;;;;;;7.60;7.10;;;24.30;99.90;;;;;;4975792;28;20205;-82
2023/08/08 10:07:20;;;;;;;7.33;6.90;;;24.40;99.90;;;;;;4974259;28;20272;-82
2023/08/08 10:09:47;;;;;;;7.70;7.20;;;24.20;99.90;;;;;;4974531;28;20244;-80
2023/08/08 10:12:14;;;;;;;7.47;6.97;;;24.40;99.90;;;;;;4985120;28;20237;-81
2023/08/08 10:14:43;;;;;;;7.80;7.20;;;24.80;99.90;;;;;;4985772;28;20202;-83
2023/08/08 10:17:14;;;;;;;6.93;6.47;;;25.30;99.90;;;;;;4981776;28;20688;-82
2023/08/08 10:19:51;;;;;;;7.07;6.47;;;25.70;99.90;;;;;;5006691;28;20222;-83
2023/08/08 10:22:22;;;;;;;4.67;4.27;;;25.90;99.90;;;;;;4985095;28;20271;-81
2023/08/08 10:24:51;;;;;;;4.27;3.90;;;25.90;99.90;;;;;;4978012;28;20261;-84
2023/08/08 10:27:29;;;;;;;5.50;5.10;;;25.90;99.90;;;;;;4991407;28;20257;-81
2023/08/08 10:30:02;;;;;;;5.10;4.70;;;25.50;99.90;;;;;;4997937;28;20213;-81
2023/08/08 10:32:29;;;;;;;5.37;4.87;;;25.30;99.90;;;;;;4990606;28;20574;-82
2023/08/08 10:35:00;;;;;;;5.03;4.63;;;25.40;99.90;;;;;;4982706;28;20209;-83
2023/08/08 10:37:27;;;;;;;7.70;7.20;;;25.40;99.90;;;;;;4982456;28;20226;-80
2023/08/08 10:39:56;;;;;;;7.10;6.70;;;25.20;99.90;;;;;;4989283;28;20644;-80
2023/08/08 10:42:25;;;;;;;8.03;7.43;;;25.10;99.90;;;;;;4979998;28;20214;-80
2023/08/08 10:44:53;;;;;;;7.50;7.00;;;25.30;99.90;;;;;;5011834;28;20723;-80
2023/08/08 10:47:23;;;;;;;7.60;7.10;;;25.20;99.90;;;;;;4991667;28;20685;-81
2023/08/08 10:50:00;;;;;;;7.47;6.97;;;25.20;99.90;;;;;;4987782;28;20225;-81
2023/08/08 10:52:27;;;;;;;6.87;6.37;;;25.30;99.90;;;;;;4997054;28;20660;-80
2023/08/08 10:54:54;;;;;;;6.67;6.27;;;25.30;99.90;;;;;;4979993;28;20194;-80
2023/08/08 10:57:25;;;;;;;7.60;7.00;;;25.20;99.90;;;;;;4990986;28;20197;-80
2023/08/08 10:59:51;;;;;;;7.40;6.90;;;25.10;99.90;;;;;;4987745;28;20213;-79
2023/08/08 11:02:20;;;;;;;7.60;7.10;;;25.20;99.90;;;;;;4990855;28;20774;-80
2023/08/08 11:04:48;;;;;;;8.37;6.97;;;25.00;99.90;;;;;;4978663;28;20261;-80
2023/08/08 11:07:16;;;;;;;7.60;7.03;;;24.70;99.90;;;;;;4978100;28;20252;-80
2023/08/08 11:09:43;;;;;;;8.00;7.33;;;24.70;99.90;;;;;;4977836;28;20218;-80
2023/08/08 11:12:15;;;;;;;7.50;6.90;;;24.90;99.90;;;;;;4987323;28;20206;-80
2023/08/08 11:14:42;;;;;;;7.63;7.10;;;25.00;99.90;;;;;;4984116;28;20511;-80
2023/08/08 11:17:08;;;;;;;6.03;5.57;;;25.10;99.90;;;;;;4985158;28;20202;-80
2023/08/08 11:19:40;;;;;;;7.17;6.70;;;25.10;99.90;;;;;;4996223;28;20217;-80
2023/08/08 11:22:11;;;;;;;6.37;6.00;;;25.10;99.90;;;;;;4996167;28;20288;-80
2023/08/08 11:24:39;;;;;;;7.00;6.30;;;24.80;99.90;;;;;;4993148;28;20206;-80
2023/08/08 11:27:06;;;;;;;7.40;6.90;;;24.80;99.90;;;;;;4985966;28;20205;-79
2023/08/08 11:29:33;;;;;;;7.33;6.70;;;24.90;99.90;;;;;;4984696;28;20221;-80
2023/08/08 11:32:02;;;;;;;7.03;6.63;;;24.70;99.90;;;;;;4981736;28;20198;-80
2023/08/08 11:34:31;;;;;;;7.43;6.93;;;24.60;99.90;;;;;;4977280;28;20480;-80
2023/08/08 11:36:59;;;;;;;7.13;6.63;;;24.60;99.90;;;;;;4979140;28;20194;-80
2023/08/08 11:39:27;;;;;;;6.90;6.47;;;24.70;99.90;;;;;;4989199;28;20527;-81
2023/08/08 11:41:56;;;;;;;6.50;6.10;;;24.90;99.90;;;;;;4981377;28;20224;-80
2023/08/08 11:44:23;;;;;;;7.40;6.90;;;24.80;99.90;;;;;;4994843;28;20668;-81
2023/08/08 11:46:50;;;;;;;7.00;6.50;;;24.80;99.90;;;;;;4994515;28;20288;-81
2023/08/08 11:49:18;;;;;;;6.90;6.43;;;24.80;99.90;;;;;;4978788;28;20222;-82
2023/08/08 11:51:45;;;;;;;7.10;6.60;;;24.70;99.70;;;;;;4979461;28;20590;-80
2023/08/08 11:54:12;;;;;;;6.90;6.30;;;24.70;99.40;;;;;;4984719;28;20242;-81
2023/08/08 11:56:39;;;;;;;6.60;5.97;;;24.70;99.60;;;;;;4983849;28;20202;-81
2023/08/08 11:59:08;;;;;;;6.47;6.07;;;24.80;99.60;;;;;;4995213;28;20758;-81
2023/08/08 12:01:35;;;;;;;6.10;5.70;;;24.80;99.30;;;;;;4995002;28;20228;-80
2023/08/08 12:04:06;;;;;;;6.90;6.40;;;24.80;99.90;;;;;;4976303;28;20206;-81
2023/08/08 12:06:33;;;;;;;6.90;6.40;;;24.60;99.90;;;;;;5003050;28;20205;-79
2023/08/08 12:09:03;;;;;;;7.40;6.77;;;24.50;99.90;;;;;;4981476;28;20240;-81
2023/08/08 12:11:31;;;;;;;6.67;6.17;;;24.40;99.90;;;;;;4994895;28;20656;-80
2023/08/08 12:14:00;;;;;;;6.50;6.10;;;24.40;99.90;;;;;;4981263;28;20282;-80
2023/08/08 12:16:30;;;;;;;5.90;5.50;;;24.40;99.90;;;;;;4975999;28;20237;-80
2023/08/08 12:18:57;;;;;;;6.40;6.00;;;24.30;99.90;;;;;;4988980;28;20226;-80
2023/08/08 12:21:24;;;;;;;6.20;5.70;;;24.30;99.90;;;;;;4980571;28;20213;-80
2023/08/08 12:23:51;;;;;;;6.30;5.80;;;24.30;99.90;;;;;;4991440;28;20751;-79
2023/08/08 12:26:18;;;;;;;5.23;4.77;;;24.50;99.90;;;;;;4984548;28;20205;-80
2023/08/08 12:28:45;;;;;;;4.50;4.20;;;24.70;99.90;;;;;;4986921;28;20639;-81
2023/08/08 12:31:12;;;;;;;3.67;3.37;;;24.90;99.90;;;;;;4978284;28;20241;-80
2023/08/08 12:33:40;;;;;;;3.63;3.00;;;24.90;99.90;;;;;;4990708;28;20576;-81
2023/08/08 12:36:07;;;;;;;4.20;3.80;;;25.20;99.50;;;;;;4984173;28;20202;-82
2023/08/08 12:38:34;;;;;;;5.00;4.53;;;25.10;98.60;;;;;;4977317;28;20228;-81
2023/08/08 12:41:02;;;;;;;5.40;5.00;;;25.20;98.80;;;;;;4985044;28;20209;-81
2023/08/08 12:43:29;;;;;;;5.87;5.47;;;25.30;98.90;;;;;;4986617;28;20201;-81
2023/08/08 12:45:56;;;;;;;6.53;5.93;;;25.40;98.70;;;;;;4979309;28;21047;-81
2023/08/08 12:48:23;;;;;;;5.17;4.87;;;25.60;98.70;;;;;;4984437;28;20585;-79